Tiempo atmosférico en la estación meteorológica de Isaba/Izaba, Navarra (820 m.)



Fecha
DESCASC
Temp. máxima en grados centígrados (hora)
DESCASC
Temp. mínima en grados centígrados (hora)
DESCASC
Temp. media en grados centígrados
DESCASC
Racha de viento máxima en m/sg (hora)
DESCASC
Velocidad máxima media en intervalos de 10 minutos(hora)
DESCASC
Precipitaciones diarias en mm
DESCASC
Precipitaciones de 00:00 a 06:00 en mm
DESCASC
Precipitaciones de 06:00 a 12:00 en mm
DESCASC
Precipitaciones de 12:00 a 18:00 en mm
DESCASC
Precipitaciones de 18:00 a 24:00 en mm
DESCASC
20-09-2018 29.6 (16:00) 9 (07:00) 19.3 5.83 (13:20) 3.06 (13:50) 0 0 0 0 0
19-09-2018 28.4 (14:20) 10 (08:00) 19.2 7.22 (18:20) 4.44 (18:20) 0 0 0 0 0
18-09-2018 29.2 (16:00) 10.7 (08:00) 20 7.5 (13:30) 4.44 (18:30) 0 0 0 0 0
17-09-2018 28.7 (15:40) 10.4 (08:10) 19.6 8.33 (12:40) 3.61 (13:50) 0 0 0 0 0
16-09-2018 30.1 (15:10) 9.2 (00:00) 19.7 8.33 (16:50) 5.56 (16:50) 0 0 0 0 0
15-09-2018 26.1 (16:00) 6.7 (00:00) 16.4 6.11 (14:30) 3.06 (15:30) 0 0 0 0 0
14-09-2018 28.1 (14:00) 7.6 (00:00) 17.9 9.17 (17:40) 5.83 (17:30) 0 0 0 0 0
13-09-2018 22.8 (14:00) 10.4 (00:00) 16.6 10.28 (14:40) 7.22 (17:10) 0.2 0.2 0 0 0
12-09-2018 23.1 (14:30) 12.4 (00:00) 17.8 9.72 (14:40) 5.56 (14:50) 6.4 0 0 6.4 0
11-09-2018 25.5 (13:20) 9.1 (00:00) 17.3 9.72 (15:30) 5.28 (15:30) 2.2 0 0 1.4 0.8
10-09-2018 27.4 (15:20) 10.6 (00:00) 19 10 (16:50) 6.67 (18:30) 0 0 0 0 0
09-09-2018 25.9 (13:30) 12.6 (00:00) 19.3 11.11 (00:40) 5 (00:40) 12 5 2.6 4.4 0
08-09-2018 27.1 (15:40) 8.7 (00:00) 17.9 8.61 (14:00) 4.17 (14:20) 0 0 0 0 0
07-09-2018 22.5 (14:30) 9.5 (00:00) 16 12.78 (16:40) 8.89 (16:00) 0 0 0 0 0
06-09-2018 23.4 (14:50) 10.3 (00:00) 16.8 10.83 (16:40) 8.06 (16:50) 0 0 0 0 0
05-09-2018 24.9 (14:40) 12.4 (00:00) 18.6 10 (16:30) 6.11 (16:40) 28.4 2.4 0 10.8 15.2
04-09-2018 28.8 (15:20) 12.1 (00:00) 20.4 9.17 (17:20) 5.83 (17:10) 70.8 53.6 0 13.6 3.6
03-09-2018 29.9 (16:10) 6.2 (00:00) 18 9.72 (19:30) 6.39 (19:00) 0 0 0 0 0
02-09-2018 31.4 (13:50) 6.2 (00:00) 18.8 8.89 (16:10) 4.72 (14:20) 0 0 0 0 0
01-09-2018 27.1 (13:40) 9.2 (00:00) 18.2 13.06 (18:10) 9.44 (16:50) 0 0 0 0 0
31-08-2018 24.3 (15:20) 8.7 (00:00) 16.5 15 (18:30) 10.56 (18:00) 0 0 0 0 0
30-08-2018 29.2 (14:00) 9.4 (00:00) 19.3 10 (17:50) 7.22 (18:20) 0 0 0 0 0
29-08-2018 27 (16:10) 13.3 (00:00) 20.2 12.78 (17:40) 7.78 (17:40) 0 0 0 0 0
28-08-2018 32.7 (15:20) 11.1 (00:00) 21.9 20.56 (22:00) 9.72 (22:10) 1 0 0 0 1
27-08-2018 32.6 (18:10) 8.1 (00:00) 20.3 6.67 (16:10) 3.61 (16:10) 0 0 0 0 0
26-08-2018 29.1 (17:50) 5.5 (00:00) 17.3 6.67 (00:30) 3.89 (18:40) 0 0 0 0 0
25-08-2018 22.1 (14:30) 8.8 (00:00) 15.5 13.89 (18:30) 9.17 (16:30) 0 0 0 0 0

Gráficas

Temp. máximas Temp. mínimas Temp. medias Precipitaciones Rachas de viento máximas Velocidades máximas media en intervalos de 10 minutos

Datos horarios

Fecha y hora oficial Temperatura (ºC) Velocidad del viento (km/h) Dirección del viento Racha (km/h) Dirección de racha Precipitación (mm) Presión (hPa) Tendencia (hPa) Humedad (%)
2018-09-23 23:00:00 16.4 12 Norte 38 Nordeste 0 -- -- 86
2018-09-23 22:00:00 17.8 23 Nordeste 41 Nordeste 0 -- -- 80
2018-09-23 21:00:00 18.6 14 Nordeste 30 Norte 0 -- -- 76
2018-09-23 20:00:00 19.4 13 Nordeste 30 Nordeste 0 -- -- 74
2018-09-23 19:00:00 20.7 18 Nordeste 37 Nordeste 0 -- -- 69
2018-09-23 18:00:00 24 20 Nordeste 35 Nordeste 0 -- -- 59
2018-09-23 17:00:00 27.9 11 Norte 24 Norte 0 -- -- 43
2018-09-23 16:00:00 29.9 10 Norte 24 Noroeste 0 -- -- 37
2018-09-23 15:00:00 30.8 5 Norte 22 Norte 0 -- -- 35
2018-09-23 14:00:00 30.3 7 Norte 20 Noroeste 0 -- -- 37
2018-09-23 13:00:00 27.9 3 Sudeste 16 Sur 0 -- -- 45
2018-09-23 12:00:00 25.3 3 Sudeste 8 Sudoeste 0 -- -- 48
2018-09-23 11:00:00 19.9 0 Calma 4 Nordeste 0 -- -- 62
2018-09-23 10:00:00 14.1 3 Norte 10 Norte 0 -- -- 84
2018-09-23 09:00:00 9.9 5 Norte 9 Norte 0 -- -- 100
2018-09-23 08:00:00 9.9 6 Norte 10 Norte 0 -- -- 100
2018-09-23 07:00:00 10 5 Norte 10 Norte 0 -- -- 99
2018-09-23 06:00:00 10.3 4 Norte 9 Noroeste 0 -- -- 99
2018-09-23 05:00:00 10.4 3 Nordeste 10 Norte 0 -- -- 99
2018-09-23 04:00:00 10.6 3 Nordeste 9 Norte 0 -- -- 99
2018-09-23 03:00:00 11.2 3 Norte 8 Norte 0 -- -- 98
2018-09-23 02:00:00 11.7 3 Norte 9 Norte 0 -- -- 97
2018-09-23 01:00:00 12.5 2 Nordeste 8 Noroeste 0 -- -- 97
2018-09-23 00:00:00 13.5 6 Norte 15 Noroeste 0 -- -- 94
2018-09-22 23:00:00 15 4 Norte 17 Norte 0 -- -- 90
2018-09-22 22:00:00 15.9 6 Norte 19 Norte 0 -- -- 89
2018-09-22 21:00:00 17.5 7 Norte 22 Nordeste 0 -- -- 83
2018-09-22 20:00:00 18.7 9 Nordeste 19 Norte 0 -- -- 79
2018-09-22 19:00:00 20.5 8 Nordeste 28 Nordeste 0 -- -- 70
2018-09-22 18:00:00 23.9 12 Nordeste 26 Nordeste 0 -- -- 52
2018-09-22 17:00:00 26.2 14 Norte 25 Norte 0 -- -- 45
2018-09-22 16:00:00 27.9 7 Norte 25 Norte 0 -- -- 38
2018-09-22 15:00:00 27.5 9 Norte 24 Norte 0 -- -- 43
2018-09-22 14:00:00 27.9 6 Norte 15 Norte 0 -- -- 42
2018-09-22 13:00:00 26.6 2 Nordeste 8 Sudoeste 0 -- -- 43
2018-09-22 12:00:00 22.7 4 Sur 6 Sur 0 -- -- 53
2018-09-22 11:00:00 19.6 0 Calma 4 Este 0 -- -- 68
2018-09-22 10:00:00 14.3 2 Nordeste 6 Nordeste 0 -- -- 86
2018-09-22 09:00:00 10 3 Norte 8 Norte 0 -- -- 100
2018-09-22 08:00:00 9.8 3 Norte 10 Noroeste 0 -- -- 99
2018-09-22 07:00:00 10.3 5 Norte 8 Norte 0 -- -- 99
2018-09-22 06:00:00 10.5 3 Nordeste 7 Noroeste 0 -- -- 99
2018-09-22 05:00:00 11 3 Nordeste 9 Norte 0 -- -- 99
2018-09-22 04:00:00 11.4 2 Norte 12 Nordeste 0 -- -- 97
2018-09-22 03:00:00 12 4 Norte 13 Norte 0 -- -- 95
2018-09-22 02:00:00 13.2 5 Norte 19 Nordeste 0 -- -- 91
2018-09-22 01:00:00 13.7 9 Norte 18 Norte 0 -- -- 90
2018-09-22 00:00:00 13.6 6 Noroeste 27 Norte 0 -- -- 89
2018-09-21 23:00:00 15.4 14 Norte 28 Nordeste 0 -- -- 82
2018-09-21 22:00:00 15.7 8 Nordeste 25 Nordeste 0 -- -- 79
2018-09-21 21:00:00 16.2 12 Nordeste 31 Este 0 -- -- 78
2018-09-21 20:00:00 16.7 9 Nordeste 26 Nordeste 0 -- -- 76
2018-09-21 19:00:00 19 21 Nordeste 31 Nordeste 0 -- -- 67
2018-09-21 18:00:00 21.4 23 Nordeste 36 Nordeste 0 -- -- 58
2018-09-21 17:00:00 25.5 10 Noroeste 24 Norte 0 -- -- 44
2018-09-21 16:00:00 25.3 12 Norte 26 Norte 0 -- -- 49
2018-09-21 15:00:00 25.8 12 Norte 21 Norte 0 -- -- 51
2018-09-21 14:00:00 25.4 9 Norte 17 Noroeste 0 -- -- 54
2018-09-21 13:00:00 25.5 5 Sur 8 Sur 0 -- -- 52
2018-09-21 12:00:00 23.5 4 Nordeste 19 Este 0 -- -- 51
2018-09-21 11:00:00 18 0 Calma 9 Nordeste 0 -- -- 84
2018-09-21 10:00:00 15.1 4 Norte 10 Norte 0 -- -- 96
2018-09-21 09:00:00 11.3 3 Nordeste 8 Norte 0 -- -- 100
2018-09-21 08:00:00 10.3 3 Norte 6 Norte 0 -- -- 100
2018-09-21 07:00:00 10.3 3 Norte 7 Norte 0 -- -- 100
2018-09-21 06:00:00 10.4 2 Norte 9 Noroeste 0 -- -- 100
2018-09-21 05:00:00 10.5 3 Norte 10 Norte 0 -- -- 99
2018-09-21 04:00:00 10.8 3 Norte 8 Norte 0 -- -- 99
2018-09-21 03:00:00 11.3 3 Norte 8 Norte 0 -- -- 98
2018-09-21 02:00:00 11.8 4 Norte 8 Norte 0 -- -- 98
2018-09-21 01:00:00 12.2 3 Norte 9 Norte 0 -- -- 97
2018-09-21 00:00:00 12.9 5 Norte 9 Norte 0 -- -- 96
2018-09-20 23:00:00 13.4 5 Noroeste 10 Norte 0 -- -- 95
2018-09-20 22:00:00 14.3 7 Norte 12 Noroeste 0 -- -- 93
2018-09-20 21:00:00 15.4 3 Norte 9 Noroeste 0 -- -- 90
2018-09-20 20:00:00 17.1 3 Norte 8 Noroeste 0 -- -- 84
2018-09-20 19:00:00 21.2 5 Noroeste 9 Noroeste 0 -- -- 62
2018-09-20 18:00:00 26.2 3 Noroeste 13 Oeste 0 -- -- 46
2018-09-20 17:00:00 27.6 6 Noroeste 17 Sur 0 -- -- 47
2018-09-20 16:00:00 29.6 6 Sudeste 15 Sur 0 -- -- 36
2018-09-20 15:00:00 29 6 Sudoeste 18 Oeste 0 -- -- 35
2018-09-20 14:00:00 27.6 10 Sur 21 Sudoeste 0 -- -- 39
2018-09-20 13:00:00 26.8 9 Sudoeste 19 Sur 0 -- -- 43
2018-09-20 12:00:00 24.6 0 Calma 5 Nordeste 0 -- -- 56
2018-09-20 11:00:00 18.6 0 Calma 3 Este 0 -- -- 70
2018-09-20 10:00:00 13.7 0 Calma 6 Noroeste 0 -- -- 90
2018-09-20 09:00:00 9.4 4 Norte 10 Norte 0 -- -- 100
2018-09-20 08:00:00 9.1 5 Norte 8 Norte 0 -- -- 100
2018-09-20 07:00:00 9 2 Norte 8 Norte 0 -- -- 100
2018-09-20 06:00:00 9.5 4 Norte 9 Norte 0 -- -- 100
2018-09-20 05:00:00 9.8 4 Norte 9 Norte 0 -- -- 99
2018-09-20 04:00:00 10.2 3 Norte 10 Norte 0 -- -- 99
2018-09-20 03:00:00 10.9 4 Norte 9 Norte 0 -- -- 98
2018-09-20 02:00:00 11.5 4 Norte 9 Nordeste 0 -- -- 98
2018-09-20 01:00:00 12.2 5 Norte 10 Norte 0 -- -- 98
2018-09-20 00:00:00 13 7 Norte 11 Norte 0 -- -- 97
2018-09-19 23:00:00 13.9 3 Norte 10 Norte 0 -- -- 95
2018-09-19 22:00:00 14.9 4 Norte 10 Noroeste 0 -- -- 93
2018-09-19 21:00:00 16.2 4 Noroeste 12 Norte 0 -- -- 89
2018-09-19 20:00:00 18.2 7 Noroeste 17 Este 0 -- -- 81
2018-09-19 19:00:00 21 10 Nordeste 26 Nordeste 0 -- -- 71
2018-09-19 18:00:00 25.8 10 Norte 22 Noroeste 0 -- -- 52
2018-09-19 17:00:00 26.9 0 Calma 14 Noroeste 0 -- -- 50
2018-09-19 16:00:00 24.5 10 Noroeste 21 Noroeste 0 -- -- 56
2018-09-19 15:00:00 27.6 5 Oeste 15 Sudoeste 0 -- -- 45
2018-09-19 14:00:00 27.9 6 Sur 13 Sudoeste 0 -- -- 44
2018-09-19 13:00:00 25.7 6 Sur 12 Sur 0 -- -- 54
2018-09-19 12:00:00 23.9 3 Sudeste 7 Sudoeste 0 -- -- 63
2018-09-19 11:00:00 19.9 0 Calma 5 Norte 0 -- -- 75
2018-09-19 10:00:00 14.2 0 Calma 8 Norte 0 -- -- 98
2018-09-19 09:00:00 10.3 3 Norte 8 Norte 0 -- -- 100
2018-09-19 08:00:00 10 3 Norte 8 Norte 0 -- -- 100
2018-09-19 07:00:00 10.5 3 Norte 10 Norte 0 -- -- 100
2018-09-19 06:00:00 11.2 5 Norte 10 Noroeste 0 -- -- 100
2018-09-19 05:00:00 11.3 3 Norte 10 Norte 0 -- -- 100
2018-09-19 04:00:00 11.8 3 Norte 9 Norte 0 -- -- 100
2018-09-19 03:00:00 12.2 3 Norte 10 Norte 0 -- -- 99
2018-09-19 02:00:00 13 5 Norte 9 Norte 0 -- -- 99
2018-09-19 01:00:00 13.5 6 Norte 9 Noroeste 0 -- -- 99
2018-09-19 00:00:00 14.2 4 Norte 8 Noroeste 0 -- -- 98
2018-09-18 23:00:00 15 5 Norte 8 Noroeste 0 -- -- 97
2018-09-18 22:00:00 16.3 2 Noroeste 9 Norte 0 -- -- 93
2018-09-18 21:00:00 17 4 Norte 9 Norte 0 -- -- 91
2018-09-18 20:00:00 19.9 3 Norte 22 Nordeste 0 -- -- 78
2018-09-18 19:00:00 21.8 13 Nordeste 27 Nordeste 0 -- -- 68
2018-09-18 18:00:00 24.4 12 Nordeste 22 Nordeste 0 -- -- 60
2018-09-18 17:00:00 24.6 7 Norte 13 Norte 0 -- -- 61
2018-09-18 16:00:00 29.2 0 Calma 14 Sudoeste 0 -- -- 41
2018-09-18 15:00:00 26.7 8 Sur 18 Sur 0 -- -- 45
2018-09-18 14:00:00 25.4 11 Sur 27 Sur 0 -- -- 46
2018-09-18 13:00:00 25 12 Sur 24 Sur 0 -- -- 48
2018-09-18 12:00:00 24.5 2 Nordeste 6 Este 0 -- -- 59
2018-09-18 11:00:00 19.6 0 Calma 5 Sudeste 0 -- -- 71
2018-09-18 10:00:00 14.7 0 Calma 4 Nordeste 0 -- -- 91
2018-09-18 09:00:00 10.8 3 Nordeste 8 Noroeste 0 -- -- 100
2018-09-18 08:00:00 10.7 3 Norte 9 Norte 0 -- -- 100
2018-09-18 07:00:00 11.3 4 Norte 7 Norte 0 -- -- 100
2018-09-18 06:00:00 11.3 0 Calma 7 Noroeste 0 -- -- 100
2018-09-18 05:00:00 11.2 2 Norte 7 Nordeste 0 -- -- 100
2018-09-18 04:00:00 11.4 4 Norte 7 Noroeste 0 -- -- 99
2018-09-18 03:00:00 11.9 3 Norte 7 Noroeste 0 -- -- 98
2018-09-18 02:00:00 13 3 Norte 9 Noroeste 0 -- -- 95
2018-09-18 01:00:00 13.3 5 Norte 12 Noroeste 0 -- -- 96
2018-09-18 00:00:00 13.8 3 Norte 12 Noroeste 0 -- -- 94
2018-09-17 23:00:00 14.6 4 Noroeste 11 Norte 0 -- -- 91
2018-09-17 22:00:00 15.4 4 Noroeste 11 Noroeste 0 -- -- 88
2018-09-17 21:00:00 15.8 3 Norte 12 Noroeste 0 -- -- 88
2018-09-17 20:00:00 17.5 4 Noroeste 12 Noroeste 0 -- -- 78
2018-09-17 19:00:00 21.2 6 Noroeste 15 Oeste 0 -- -- 60
2018-09-17 18:00:00 27.2 0 Calma 18 Sur 0 -- -- 41
2018-09-17 17:00:00 27.7 8 Sudoeste 23 Sudoeste 0 -- -- 33
2018-09-17 16:00:00 28.2 9 Sudoeste 22 Sudoeste 0 -- -- 34
2018-09-17 15:00:00 27.5 10 Sur 25 Sudoeste 0 -- -- 36
2018-09-17 14:00:00 26.7 13 Sur 26 Sur 0 -- -- 37
2018-09-17 13:00:00 26.5 9 Sur 30 Sur 0 -- -- 41
2018-09-17 12:00:00 24.6 9 Sur 20 Sur 0 -- -- 49
2018-09-17 11:00:00 20.5 0 Calma 6 Este 0 -- -- 71
2018-09-17 10:00:00 15.3 0 Calma 8 Este 0 -- -- 86
2018-09-17 09:00:00 11 3 Nordeste 6 Norte 0 -- -- 100
2018-09-17 08:00:00 10.5 0 Calma 4 Noroeste 0 -- -- 100
2018-09-17 07:00:00 10.6 0 Calma 4 Nordeste 0 -- -- 100
2018-09-17 06:00:00 10.8 0 Calma 4 Noroeste 0 -- -- 100
2018-09-17 05:00:00 10.9 2 Nordeste 5 Nordeste 0 -- -- 100
2018-09-17 04:00:00 10.9 3 Norte 7 Norte 0 -- -- 99
2018-09-17 03:00:00 11.4 3 Norte 9 Norte 0 -- -- 99
2018-09-17 02:00:00 11.7 0 Calma 8 Norte 0 -- -- 99
2018-09-17 01:00:00 12.4 3 Nordeste 7 Norte 0 -- -- 98
2018-09-17 00:00:00 13.3 3 Norte 8 Norte 0 -- -- 97
2018-09-16 23:00:00 14.3 3 Norte 9 Nordeste 0 -- -- 96
2018-09-16 22:00:00 15.5 3 Norte 7 Norte 0 -- -- 95
2018-09-16 21:00:00 16.9 3 Noroeste 6 Noroeste 0 -- -- 94
2018-09-16 20:00:00 19.3 2 Noroeste 8 Noroeste 0 -- -- 84
2018-09-16 19:00:00 22.2 4 Norte 22 Nordeste 0 -- -- 69
2018-09-16 18:00:00 25.1 14 Nordeste 25 Nordeste 0 -- -- 55
2018-09-16 17:00:00 26.6 18 Nordeste 30 Nordeste 0 -- -- 51
2018-09-16 16:00:00 29.8 6 Norte 12 Noroeste 0 -- -- 35
2018-09-16 15:00:00 30 3 Norte 8 Norte 0 -- -- 36
2018-09-16 14:00:00 28.5 0 Calma 10 Sur 0 -- -- 43
2018-09-16 13:00:00 24.5 8 Sur 11 Sur 0 -- -- 51
2018-09-16 12:00:00 23.2 2 Nordeste 4 Nordeste 0 -- -- 60
2018-09-16 11:00:00 18.8 0 Calma 4 Sudeste 0 -- -- 76
2018-09-16 10:00:00 13 0 Calma 5 Este 0 -- -- 99
2018-09-16 09:00:00 9.5 2 Norte 10 Noroeste 0 -- -- 100
2018-09-16 08:00:00 9.4 5 Norte 10 Noroeste 0 -- -- 100
2018-09-16 07:00:00 9.7 4 Norte 10 Noroeste 0 -- -- 100
2018-09-16 06:00:00 9.5 4 Norte 8 Nordeste 0 -- -- 100
2018-09-16 05:00:00 9.5 5 Norte 9 Norte 0 -- -- 100
2018-09-16 04:00:00 9.9 3 Norte 8 Noroeste 0 -- -- 100
2018-09-16 03:00:00 10.5 4 Norte 7 Norte 0 -- -- 100
2018-09-16 02:00:00 10.9 3 Norte 9 Noroeste 0 -- -- 99
2018-09-16 01:00:00 11.9 3 Norte 8 Norte 0 -- -- 99
2018-09-16 00:00:00 12.5 3 Norte 8 Noroeste 0 -- -- 99
2018-09-15 23:00:00 13.2 3 Norte 9 Norte 0 -- -- 98
2018-09-15 22:00:00 14.1 4 Norte 6 Norte 0 -- -- 97
2018-09-15 21:00:00 15.6 3 Norte 5 Norte 0 -- -- 94
2018-09-15 20:00:00 17.6 0 Calma 6 Norte 0 -- -- 87
2018-09-15 19:00:00 20.1 3 Noroeste 8 Noroeste 0 -- -- 77
2018-09-15 18:00:00 22 0 Calma 17 Sudoeste 0 -- -- 68
2018-09-15 17:00:00 23.5 7 Sudoeste 19 Sudoeste 0 -- -- 50
2018-09-15 16:00:00 26.1 8 Sudoeste 22 Sudoeste 0 -- -- 47
2018-09-15 15:00:00 24.8 9 Sudoeste 22 Sur 0 -- -- 54
2018-09-15 14:00:00 22.9 9 Sur 18 Sur 0 -- -- 58
2018-09-15 13:00:00 21.1 0 Calma 3 Nordeste 0 -- -- 65
2018-09-15 12:00:00 17.8 0 Calma 4 Este 0 -- -- 68
2018-09-15 11:00:00 17.7 0 Calma 4 Nordeste 0 -- -- 64
2018-09-15 10:00:00 11.8 2 Nordeste 8 Nordeste 0 -- -- 90
2018-09-15 09:00:00 6.9 4 Nordeste 10 Nordeste 0 -- -- 100
2018-09-15 08:00:00 6.7 3 Norte 9 Norte 0 -- -- 100
2018-09-15 07:00:00 7.2 5 Norte 10 Norte 0 -- -- 100
2018-09-15 06:00:00 7.2 3 Norte 6 Norte 0 -- -- 100
2018-09-15 05:00:00 7.7 3 Noroeste 13 Nordeste 0 -- -- 100
2018-09-15 04:00:00 8.1 4 Noroeste 12 Norte 0 -- -- 99
2018-09-15 03:00:00 9.2 4 Norte 11 Norte 0 -- -- 99
2018-09-15 02:00:00 9.7 4 Norte 16 Norte 0 -- -- 98
2018-09-15 01:00:00 10.4 7 Norte 17 Noroeste 0 -- -- 98
2018-09-15 00:00:00 11.3 9 Norte 18 Norte 0 -- -- 96
2018-09-14 23:00:00 12.4 8 Noroeste 17 Nordeste 0 -- -- 93
2018-09-14 22:00:00 14.8 8 Nordeste 22 Este 0 -- -- 83
2018-09-14 21:00:00 15.1 10 Nordeste 27 Nordeste 0 -- -- 84
2018-09-14 20:00:00 16.4 13 Nordeste 28 Nordeste 0 -- -- 81
2018-09-14 19:00:00 18.4 18 Nordeste 32 Norte 0 -- -- 75
2018-09-14 18:00:00 21.6 11 Norte 33 Norte 0 -- -- 67
2018-09-14 17:00:00 22.5 18 Norte 26 Norte 0 -- -- 67
2018-09-14 16:00:00 25.1 15 Norte 24 Norte 0 -- -- 58
2018-09-14 15:00:00 26.3 12 Norte 20 Noroeste 0 -- -- 52
2018-09-14 14:00:00 28.1 6 Norte 12 Norte 0 -- -- 46
2018-09-14 13:00:00 24.3 4 Sur 18 Sudoeste 0 -- -- 53
2018-09-14 12:00:00 22.3 2 Este 5 Sudeste 0 -- -- 55
2018-09-14 11:00:00 17.4 0 Calma 4 Sur 0 -- -- 75
2018-09-14 10:00:00 12.2 0 Calma 4 Nordeste 0 -- -- 97
2018-09-14 09:00:00 7.9 3 Norte 6 Norte 0 -- -- 100
2018-09-14 08:00:00 7.8 3 Norte 8 Norte 0 -- -- 100
2018-09-14 07:00:00 7.7 2 Nordeste 6 Norte 0 -- -- 100
2018-09-14 06:00:00 8.3 2 Nordeste 8 Nordeste 0 -- -- 100
2018-09-14 05:00:00 8.6 4 Norte 13 Noroeste 0 -- -- 100
2018-09-14 04:00:00 9.5 6 Norte 15 Norte 0 -- -- 100
2018-09-14 03:00:00 9.8 4 Norte 18 Norte 0 -- -- 99
2018-09-14 02:00:00 10.3 8 Norte 18 Nordeste 0 -- -- 100
2018-09-14 01:00:00 10.8 10 Norte 20 Norte 0 -- -- 99
2018-09-14 00:00:00 11.3 8 Norte 19 Norte 0 -- -- 98
2018-09-13 23:00:00 12.1 9 Norte 18 Norte 0 -- -- 98
2018-09-13 22:00:00 12.8 10 Norte 17 Norte 0 -- -- 98
2018-09-13 21:00:00 13.5 6 Norte 14 Nordeste 0 -- -- 96
2018-09-13 20:00:00 15.3 9 Nordeste 27 Nordeste 0 -- -- 88
2018-09-13 19:00:00 17.2 18 Nordeste 31 Nordeste 0 -- -- 81
2018-09-13 18:00:00 19.7 21 Nordeste 37 Nordeste 0 -- -- 71
2018-09-13 17:00:00 20.9 26 Nordeste 37 Nordeste 0 -- -- 68
2018-09-13 16:00:00 21.4 24 Nordeste 33 Nordeste 0 -- -- 66
2018-09-13 15:00:00 22.2 22 Nordeste 37 Nordeste 0 -- -- 66
2018-09-13 14:00:00 22.8 15 Nordeste 27 Nordeste 0 -- -- 66
2018-09-13 13:00:00 21.6 16 Nordeste 24 Nordeste 0 -- -- 72
2018-09-13 12:00:00 19.9 12 Nordeste 24 Nordeste 0 -- -- 79
2018-09-13 11:00:00 18.2 12 Este 22 Nordeste 0 -- -- 97
2018-09-13 10:00:00 13.6 5 Norte 10 Norte 0 -- -- 100
2018-09-13 09:00:00 10.8 4 Norte 9 Norte 0 -- -- 100
2018-09-13 08:00:00 10.4 2 Norte 10 Noroeste 0 -- -- 100
2018-09-13 07:00:00 10.8 2 Norte 10 Norte 0 -- -- 100
2018-09-13 06:00:00 10.7 3 Norte 10 Norte 0 -- -- 100
2018-09-13 05:00:00 11 3 Norte 9 Noroeste 0 -- -- 100
2018-09-13 04:00:00 10.8 3 Nordeste 7 Norte 0 -- -- 100
2018-09-13 03:00:00 11.3 3 Norte 9 Norte 0 -- -- 100
2018-09-13 02:00:00 11.6 3 Norte 11 Norte 0.2 -- -- 100
2018-09-13 01:00:00 11.9 2 Norte 8 Norte 0 -- -- 100
2018-09-13 00:00:00 12.6 6 Norte 19 Norte 0 -- -- 100
2018-09-12 23:00:00 13.3 5 Norte 12 Norte 0 -- -- 100
2018-09-12 22:00:00 13.8 5 Norte 22 Norte 0 -- -- 100
2018-09-12 21:00:00 14.7 2 Noroeste 14 Nordeste 0 -- -- 99
2018-09-12 20:00:00 15.9 8 Nordeste 15 Nordeste 0 -- -- 97
2018-09-12 19:00:00 16.6 5 Nordeste 14 Nordeste 0 -- -- 98
2018-09-12 18:00:00 15.5 3 Norte 19 Norte 1.6 -- -- 99
2018-09-12 17:00:00 14.4 6 Nordeste 18 Norte 3 -- -- 99
2018-09-12 16:00:00 14.5 4 Norte 26 Norte 1.8 -- -- 97
2018-09-12 15:00:00 17.5 15 Norte 35 Nordeste 0 -- -- 81
2018-09-12 14:00:00 21.8 7 Sur 20 Sur 0 -- -- 63
2018-09-12 13:00:00 21.4 8 Sur 19 Sur 0 -- -- 68
2018-09-12 12:00:00 21.1 0 Calma 6 Este 0 -- -- 77
2018-09-12 11:00:00 16.6 2 Oeste 5 Sur 0 -- -- 99
2018-09-12 10:00:00 14 0 Calma 6 Noroeste 0 -- -- 100
2018-09-12 09:00:00 12.8 3 Norte 13 Noroeste 0 -- -- 100
2018-09-12 08:00:00 12.5 2 Noroeste 9 Noroeste 0 -- -- 100
2018-09-12 07:00:00 12.5 3 Noroeste 11 Norte 0 -- -- 100
2018-09-12 06:00:00 12.8 6 Norte 12 Noroeste 0 -- -- 100
2018-09-12 05:00:00 13.1 4 Noroeste 13 Noroeste 0 -- -- 100
2018-09-12 04:00:00 13.6 7 Norte 12 Noroeste 0 -- -- 100
2018-09-12 03:00:00 13.8 3 Norte 9 Noroeste 0 -- -- 100
2018-09-12 02:00:00 13.6 0 Calma 13 Norte 0 -- -- 100
2018-09-12 01:00:00 14.2 5 Nordeste 11 Nordeste 0 -- -- 100
2018-09-12 00:00:00 14.4 3 Norte 6 Norte 0 -- -- 99
2018-09-11 23:00:00 14.8 0 Calma 6 Norte 0 -- -- 99
2018-09-11 22:00:00 15.5 0 Calma 6 Norte 0 -- -- 99
2018-09-11 21:00:00 15.9 2 Norte 10 Sudoeste 0.8 -- -- 98
2018-09-11 20:00:00 16.4 2 Oeste 5 Sudoeste 0 -- -- 97
2018-09-11 19:00:00 17.3 2 Noroeste 5 Oeste 0 -- -- 92
2018-09-11 18:00:00 18.5 0 Calma 4 Noroeste 0 -- -- 87
2018-09-11 17:00:00 18.2 2 Norte 20 Nordeste 0 -- -- 88
2018-09-11 16:00:00 16.6 12 Este 35 Sudeste 1.4 -- -- 93
2018-09-11 15:00:00 23.8 5 Sur 15 Sudoeste 0 -- -- 56
2018-09-11 14:00:00 23.7 8 Sur 23 Sudoeste 0 -- -- 49
2018-09-11 13:00:00 25.1 10 Sur 17 Sur 0 -- -- 48
2018-09-11 12:00:00 23.4 3 Sur 9 Sur 0 -- -- 64
2018-09-11 11:00:00 20 0 Calma 4 Sudeste 0 -- -- 71
2018-09-11 10:00:00 13.4 2 Nordeste 6 Nordeste 0 -- -- 99
2018-09-11 09:00:00 9.8 3 Norte 6 Norte 0 -- -- 100
2018-09-11 08:00:00 9.3 3 Norte 8 Norte 0 -- -- 100
2018-09-11 07:00:00 9.2 4 Norte 8 Norte 0 -- -- 100
2018-09-11 06:00:00 9.3 2 Norte 8 Noroeste 0 -- -- 100
2018-09-11 05:00:00 9.4 4 Noroeste 9 Noroeste 0 -- -- 100
2018-09-11 04:00:00 9.8 4 Norte 10 Norte 0 -- -- 100
2018-09-11 03:00:00 10.3 4 Norte 9 Norte 0 -- -- 100
2018-09-11 02:00:00 10.9 6 Norte 12 Noroeste 0 -- -- 100
2018-09-11 01:00:00 11.5 6 Norte 12 Norte 0 -- -- 99
2018-09-11 00:00:00 12.2 6 Norte 14 Norte 0 -- -- 99
2018-09-10 23:00:00 12.7 3 Norte 9 Nordeste 0 -- -- 98
2018-09-10 22:00:00 13.6 3 Nordeste 9 Norte 0 -- -- 97
2018-09-10 21:00:00 14.7 5 Norte 19 Este 0 -- -- 94
2018-09-10 20:00:00 16.7 10 Nordeste 32 Nordeste 0 -- -- 82
2018-09-10 19:00:00 18.5 21 Nordeste 34 Nordeste 0 -- -- 76
2018-09-10 18:00:00 21 21 Nordeste 31 Nordeste 0 -- -- 68
2018-09-10 17:00:00 21 23 Nordeste 36 Nordeste 0 -- -- 70
2018-09-10 16:00:00 20.5 19 Nordeste 27 Nordeste 0 -- -- 73
2018-09-10 15:00:00 25.7 8 Sur 18 Sur 0 -- -- 45
2018-09-10 14:00:00 24.9 9 Sur 15 Sur 0 -- -- 50
2018-09-10 13:00:00 24.7 5 Sur 11 Este 0 -- -- 50
2018-09-10 12:00:00 22.4 7 Nordeste 23 Nordeste 0 -- -- 64
2018-09-10 11:00:00 20.1 9 Nordeste 21 Nordeste 0 -- -- 74
2018-09-10 10:00:00 16.5 9 Este 18 Nordeste 0 -- -- 95
2018-09-10 09:00:00 11.8 5 Noroeste 15 Noroeste 0 -- -- 100
2018-09-10 08:00:00 11 2 Oeste 11 Noroeste 0 -- -- 100
2018-09-10 07:00:00 11.1 4 Norte 12 Norte 0 -- -- 100
2018-09-10 06:00:00 10.7 2 Sudoeste 17 Norte 0 -- -- 100
2018-09-10 05:00:00 11.2 4 Norte 19 Norte 0 -- -- 100
2018-09-10 04:00:00 11.1 4 Noroeste 16 Norte 0 -- -- 100
2018-09-10 03:00:00 11.4 5 Norte 10 Norte 0 -- -- 100
2018-09-10 02:00:00 11.7 4 Norte 10 Noroeste 0 -- -- 100
2018-09-10 01:00:00 12.1 5 Noroeste 9 Noroeste 0 -- -- 99
2018-09-10 00:00:00 12.6 3 Noroeste 7 Noroeste 0 -- -- 98
2018-09-09 23:00:00 13.6 2 Sudoeste 9 Noroeste 0 -- -- 97
2018-09-09 22:00:00 14.2 3 Noroeste 9 Noroeste 0 -- -- 97
2018-09-09 21:00:00 15 3 Norte 15 Este 0 -- -- 94
2018-09-09 20:00:00 16.6 8 Norte 25 Este 0 -- -- 86
2018-09-09 19:00:00 18.5 12 Nordeste 23 Este 0 -- -- 78
2018-09-09 18:00:00 20 8 Nordeste 16 Nordeste 0 -- -- 78
2018-09-09 17:00:00 17.4 6 Norte 23 Nordeste 0 -- -- 92
2018-09-09 16:00:00 19 11 Nordeste 21 Nordeste 4.4 -- -- 91
2018-09-09 15:00:00 18.9 11 Nordeste 24 Nordeste 0 -- -- 83
2018-09-09 14:00:00 25.8 5 Este 16 Este 0 -- -- 63
2018-09-09 13:00:00 23.9 4 Norte 13 Noroeste 0 -- -- 64
2018-09-09 12:00:00 19.8 5 Nordeste 10 Norte 0 -- -- 83
2018-09-09 11:00:00 18.2 2 Nordeste 6 Nordeste 0 -- -- 87
2018-09-09 10:00:00 14.2 2 Norte 3 Nordeste 0 -- -- 99
2018-09-09 09:00:00 13.2 0 Calma 4 Nordeste 0 -- -- 100
2018-09-09 08:00:00 12.9 0 Calma 6 Norte 0 -- -- 100
2018-09-09 07:00:00 13.4 2 Oeste 6 Noroeste 2.6 -- -- 100
2018-09-09 06:00:00 13.4 2 Sudeste 11 Norte 1.2 -- -- 99
2018-09-09 05:00:00 13.6 5 Sudoeste 24 Sudoeste 0 -- -- 99
2018-09-09 04:00:00 13.1 2 Norte 9 Norte 0.2 -- -- 99
2018-09-09 03:00:00 13.6 3 Noroeste 15 Nordeste 0 -- -- 98
2018-09-09 02:00:00 14 4 Nordeste 22 Sur 3.4 -- -- 98
2018-09-09 01:00:00 15.7 8 Sur 40 Sudeste 0.2 -- -- 86
2018-09-09 00:00:00 16.5 3 Sudoeste 12 Norte 0 -- -- 84
2018-09-08 23:00:00 15.5 3 Noroeste 13 Norte 0 -- -- 90
2018-09-08 22:00:00 15.9 3 Norte 9 Norte 0 -- -- 89
2018-09-08 21:00:00 17.3 3 Noroeste 12 Sur 0 -- -- 80
2018-09-08 20:00:00 19.5 4 Sur 11 Sur 0 -- -- 69
2018-09-08 19:00:00 22.7 12 Sudoeste 22 Sudoeste 0 -- -- 49
2018-09-08 18:00:00 25 10 Sudoeste 21 Oeste 0 -- -- 43
2018-09-08 17:00:00 25.2 14 Sudoeste 30 Sur 0 -- -- 44
2018-09-08 16:00:00 26.7 12 Sudoeste 26 Sur 0 -- -- 39
2018-09-08 15:00:00 25.3 12 Sur 28 Oeste 0 -- -- 49
2018-09-08 14:00:00 25.7 14 Sudoeste 31 Sudoeste 0 -- -- 46
2018-09-08 13:00:00 24.5 8 Sur 22 Sudoeste 0 -- -- 54
2018-09-08 12:00:00 22 6 Sur 11 Sur 0 -- -- 61
2018-09-08 11:00:00 18.3 2 Norte 6 Norte 0 -- -- 73
2018-09-08 10:00:00 13.6 0 Calma 7 Norte 0 -- -- 99
2018-09-08 09:00:00 10.5 4 Norte 8 Norte 0 -- -- 100
2018-09-08 08:00:00 9.4 3 Norte 9 Norte 0 -- -- 100
2018-09-08 07:00:00 8.9 3 Norte 9 Noroeste 0 -- -- 100
2018-09-08 06:00:00 9 5 Norte 9 Noroeste 0 -- -- 100
2018-09-08 05:00:00 9 4 Norte 8 Norte 0 -- -- 100
2018-09-08 04:00:00 9.2 2 Norte 9 Noroeste 0 -- -- 100
2018-09-08 03:00:00 9.6 4 Norte 8 Norte 0 -- -- 100
2018-09-08 02:00:00 10.1 5 Norte 10 Norte 0 -- -- 99
2018-09-08 01:00:00 10.7 3 Norte 7 Norte 0 -- -- 99
2018-09-08 00:00:00 11.3 4 Norte 9 Noroeste 0 -- -- 98
2018-09-07 23:00:00 12 3 Noroeste 9 Noroeste 0 -- -- 97
2018-09-07 22:00:00 13.1 7 Noroeste 11 Noroeste 0 -- -- 94
2018-09-07 21:00:00 14.9 6 Nordeste 22 Este 0 -- -- 86
2018-09-07 20:00:00 16.1 9 Nordeste 29 Nordeste 0 -- -- 80
2018-09-07 19:00:00 18.1 19 Nordeste 35 Nordeste 0 -- -- 72
2018-09-07 18:00:00 19.4 21 Nordeste 43 Nordeste 0 -- -- 67
2018-09-07 17:00:00 19.1 26 Nordeste 46 Nordeste 0 -- -- 70
2018-09-07 16:00:00 20.3 32 Nordeste 44 Nordeste 0 -- -- 65
2018-09-07 15:00:00 22.4 26 Nordeste 37 Nordeste 0 -- -- 57
2018-09-07 14:00:00 22.2 23 Nordeste 34 Nordeste 0 -- -- 57
2018-09-07 13:00:00 21.6 22 Nordeste 32 Nordeste 0 -- -- 58
2018-09-07 12:00:00 21.1 21 Nordeste 33 Nordeste 0 -- -- 58
2018-09-07 11:00:00 20 16 Este 27 Nordeste 0 -- -- 62
2018-09-07 10:00:00 16 2 Norte 6 Norte 0 -- -- 74
2018-09-07 09:00:00 9.8 2 Norte 8 Noroeste 0 -- -- 99
2018-09-07 08:00:00 9.7 2 Oeste 9 Norte 0 -- -- 99
2018-09-07 07:00:00 10 2 Noroeste 11 Norte 0 -- -- 97
2018-09-07 06:00:00 10.8 4 Norte 9 Noroeste 0 -- -- 95
2018-09-07 05:00:00 11.8 5 Norte 18 Nordeste 0 -- -- 91
2018-09-07 04:00:00 12.2 5 Norte 29 Norte 0 -- -- 90
2018-09-07 03:00:00 13.4 13 Norte 35 Noroeste 0 -- -- 86
2018-09-07 02:00:00 13.9 16 Norte 28 Norte 0 -- -- 86
2018-09-07 01:00:00 13.7 9 Norte 24 Nordeste 0 -- -- 86
2018-09-07 00:00:00 14 14 Nordeste 29 Norte 0 -- -- 85
2018-09-06 23:00:00 14.1 14 Nordeste 38 Nordeste 0 -- -- 87
2018-09-06 22:00:00 14.3 18 Nordeste 35 Nordeste 0 -- -- 84
2018-09-06 21:00:00 13.9 13 Nordeste 26 Nordeste 0 -- -- 84
2018-09-06 20:00:00 14.8 14 Nordeste 34 Nordeste 0 -- -- 83
2018-09-06 19:00:00 15.9 15 Nordeste 34 Este 0 -- -- 76
2018-09-06 18:00:00 16.2 13 Nordeste 36 Nordeste 0 -- -- 78
2018-09-06 17:00:00 17.1 21 Nordeste 39 Nordeste 0 -- -- 75
2018-09-06 16:00:00 18.7 12 Norte 33 Nordeste 0 -- -- 73
2018-09-06 15:00:00 20.4 19 Nordeste 29 Nordeste 0 -- -- 62
2018-09-06 14:00:00 21 11 Norte 26 Nordeste 0 -- -- 65
2018-09-06 13:00:00 20.5 9 Norte 24 Nordeste 0 -- -- 71
2018-09-06 12:00:00 20.7 12 Este 22 Este 0 -- -- 72
2018-09-06 11:00:00 16.8 2 Nordeste 8 Nordeste 0 -- -- 88
2018-09-06 10:00:00 13.8 0 Calma 11 Norte 0 -- -- 99
2018-09-06 09:00:00 11.5 3 Norte 12 Norte 0 -- -- 100
2018-09-06 08:00:00 10.8 2 Norte 12 Norte 0 -- -- 100
2018-09-06 07:00:00 10.5 2 Nordeste 11 Noroeste 0 -- -- 100
2018-09-06 06:00:00 10.8 3 Nordeste 11 Norte 0 -- -- 100
2018-09-06 05:00:00 11.6 5 Norte 10 Norte 0 -- -- 100
2018-09-06 04:00:00 11.5 3 Nordeste 12 Nordeste 0 -- -- 100
2018-09-06 03:00:00 11.7 6 Nordeste 10 Nordeste 0 -- -- 100
2018-09-06 02:00:00 12 4 Nordeste 6 Norte 0 -- -- 100
2018-09-06 01:00:00 12 2 Nordeste 4 Oeste 0 -- -- 100
2018-09-06 00:00:00 12.5 2 Este 6 Norte 0 -- -- 100
2018-09-05 23:00:00 12.5 0 Calma 4 Nordeste 0 -- -- 100
2018-09-05 22:00:00 12.9 0 Calma 8 Nordeste 0 -- -- 99
2018-09-05 21:00:00 13.3 5 Sur 25 Nordeste 1.4 -- -- 100
2018-09-05 20:00:00 13.1 5 Sur 19 Sudeste 4.6 -- -- 100
2018-09-05 19:00:00 13.8 5 Este 23 Sudeste 9.2 -- -- 100
2018-09-05 18:00:00 15.8 7 Sudeste 32 Nordeste 10.8 -- -- 98
2018-09-05 17:00:00 19 21 Nordeste 36 Nordeste 0 -- -- 76
2018-09-05 16:00:00 18.8 19 Norte 31 Noroeste 0 -- -- 82
2018-09-05 15:00:00 23.8 5 Sur 20 Sudoeste 0 -- -- 56
2018-09-05 14:00:00 23.5 10 Sur 20 Sudoeste 0 -- -- 59
2018-09-05 13:00:00 21.8 8 Sur 18 Sur 0 -- -- 68
2018-09-05 12:00:00 19.9 5 Sudoeste 12 Sur 0 -- -- 76
2018-09-05 11:00:00 18.7 3 Sudeste 8 Este 0 -- -- 80
2018-09-05 10:00:00 16.7 3 Nordeste 7 Norte 0 -- -- 96
2018-09-05 09:00:00 14.4 3 Norte 9 Nordeste 0 -- -- 100
2018-09-05 08:00:00 13.6 3 Noroeste 10 Nordeste 0 -- -- 100
2018-09-05 07:00:00 13.4 0 Calma 4 Nordeste 0 -- -- 100
2018-09-05 06:00:00 13.6 0 Calma 5 Sur 0 -- -- 100
2018-09-05 05:00:00 13.6 4 Sur 6 Norte 0 -- -- 100
2018-09-05 04:00:00 14 0 Calma 8 Sur 0 -- -- 100
2018-09-05 03:00:00 14.2 0 Calma 10 Nordeste 0.4 -- -- 100
2018-09-05 02:00:00 14.6 4 Norte 9 Noroeste 2 -- -- 100
2018-09-05 01:00:00 14.7 3 Nordeste 9 Sur 0 -- -- 100
2018-09-05 00:00:00 14.5 4 Norte 9 Norte 0 -- -- 100
2018-09-04 23:00:00 15.2 4 Nordeste 14 Nordeste 0 -- -- 99
2018-09-04 22:00:00 15.4 0 Calma 5 Noroeste 0 -- -- 99
2018-09-04 21:00:00 15.8 0 Calma 8 Este 0 -- -- 99
2018-09-04 20:00:00 16.5 5 Nordeste 32 Nordeste 0 -- -- 99
2018-09-04 19:00:00 17.2 17 Nordeste 32 Nordeste 3.6 -- -- 97
2018-09-04 18:00:00 17.3 13 Este 33 Este 13.6 -- -- 98
2018-09-04 17:00:00 21.1 20 Nordeste 31 Este 0 -- -- 71
2018-09-04 16:00:00 27.1 5 Oeste 21 Sudoeste 0 -- -- 44
2018-09-04 15:00:00 27.5 7 Sudoeste 18 Sur 0 -- -- 42
2018-09-04 14:00:00 27 8 Sudoeste 16 Sudoeste 0 -- -- 44
2018-09-04 13:00:00 26 3 Este 6 Sudeste 0 -- -- 56
2018-09-04 12:00:00 22.1 2 Este 6 Este 0 -- -- 70
2018-09-04 11:00:00 18.5 2 Nordeste 7 Nordeste 0 -- -- 96
2018-09-04 10:00:00 15.1 4 Norte 10 Nordeste 0 -- -- 98
2018-09-04 09:00:00 13 9 Nordeste 14 Nordeste 0 -- -- 100
2018-09-04 08:00:00 12.5 4 Norte 10 Nordeste 0 -- -- 100
2018-09-04 07:00:00 12.1 2 Norte 10 Norte 0 -- -- 100
2018-09-04 06:00:00 13.1 4 Noroeste 10 Norte 2.6 -- -- 100
2018-09-04 05:00:00 13.7 3 Norte 21 Este 4 -- -- 99
2018-09-04 04:00:00 14 12 Norte 24 Nordeste 26.4 -- -- 99
2018-09-04 03:00:00 13.8 7 Este 23 Nordeste 20.6 -- -- 97
2018-09-04 02:00:00 15.2 6 Norte 12 Norte 0 -- -- 80
2018-09-04 01:00:00 15 4 Norte 10 Norte 0 -- -- 80
2018-09-04 00:00:00 15 4 Noroeste 14 Norte 0 -- -- 80
2018-09-03 23:00:00 16 7 Norte 17 Norte 0 -- -- 76
2018-09-03 22:00:00 17.8 8 Nordeste 28 Este 0 -- -- 66
2018-09-03 21:00:00 18.6 16 Nordeste 28 Nordeste 0 -- -- 64
2018-09-03 20:00:00 20.3 17 Nordeste 35 Nordeste 0 -- -- 60
2018-09-03 19:00:00 22.2 23 Nordeste 34 Nordeste 0 -- -- 54
2018-09-03 18:00:00 25.8 15 Nordeste 31 Norte 0 -- -- 46
2018-09-03 17:00:00 26.9 13 Norte 28 Nordeste 0 -- -- 42
2018-09-03 16:00:00 29.2 13 Norte 21 Norte 0 -- -- 33
2018-09-03 15:00:00 28.3 9 Sur 15 Sudoeste 0 -- -- 30
2018-09-03 14:00:00 27.5 7 Sudoeste 26 Sudoeste 0 -- -- 31
2018-09-03 13:00:00 26.9 12 Sur 25 Sudoeste 0 -- -- 31
2018-09-03 12:00:00 25.1 13 Sur 23 Sudoeste 0 -- -- 32
2018-09-03 11:00:00 20.3 0 Calma 4 Norte 0 -- -- 41
2018-09-03 10:00:00 13.7 2 Norte 7 Norte 0 -- -- 59
2018-09-03 09:00:00 7.4 2 Nordeste 6 Noroeste 0 -- -- 86
2018-09-03 08:00:00 6.2 4 Norte 10 Norte 0 -- -- 91
2018-09-03 07:00:00 6.2 4 Norte 10 Norte 0 -- -- 92
2018-09-03 06:00:00 6.5 4 Norte 9 Norte 0 -- -- 91
2018-09-03 05:00:00 6.8 4 Norte 8 Noroeste 0 -- -- 91
2018-09-03 04:00:00 7.5 3 Norte 9 Noroeste 0 -- -- 89
2018-09-03 03:00:00 8.5 4 Noroeste 12 Norte 0 -- -- 86
2018-09-03 02:00:00 9.1 4 Norte 10 Norte 0 -- -- 83
2018-09-03 01:00:00 10.2 5 Norte 12 Norte 0 -- -- 80
2018-09-03 00:00:00 11.6 4 Norte 12 Norte 0 -- -- 75
2018-09-02 23:00:00 13.3 6 Norte 15 Norte 0 -- -- 70
2018-09-02 22:00:00 14.7 7 Norte 14 Norte 0 -- -- 65
2018-09-02 21:00:00 16.9 7 Noroeste 14 Norte 0 -- -- 58
2018-09-02 20:00:00 19.9 6 Norte 12 Norte 0 -- -- 49
2018-09-02 19:00:00 26.4 8 Noroeste 19 Noroeste 0 -- -- 31
2018-09-02 18:00:00 28.7 11 Noroeste 28 Oeste 0 -- -- 25
2018-09-02 17:00:00 30.3 12 Noroeste 32 Norte 0 -- -- 22
2018-09-02 16:00:00 30.1 12 Norte 26 Norte 0 -- -- 23
2018-09-02 15:00:00 30.6 8 Norte 25 Noroeste 0 -- -- 24
2018-09-02 14:00:00 30.9 9 Norte 20 Noroeste 0 -- -- 22
2018-09-02 13:00:00 27.8 3 Sudeste 17 Sudoeste 0 -- -- 30
2018-09-02 12:00:00 23.9 8 Sur 16 Sudoeste 0 -- -- 39
2018-09-02 11:00:00 19.7 0 Calma 5 Nordeste 0 -- -- 50
2018-09-02 10:00:00 13 0 Calma 5 Nordeste 0 -- -- 65
2018-09-02 09:00:00 7.1 3 Norte 11 Norte 0 -- -- 93
2018-09-02 08:00:00 6.2 5 Norte 13 Norte 0 -- -- 96
2018-09-02 07:00:00 6.6 5 Norte 10 Noroeste 0 -- -- 96
2018-09-02 06:00:00 7.3 5 Norte 11 Norte 0 -- -- 96
2018-09-02 05:00:00 8.1 5 Norte 11 Noroeste 0 -- -- 96
2018-09-02 04:00:00 9 5 Norte 11 Noroeste 0 -- -- 95
2018-09-02 03:00:00 10 6 Norte 14 Norte 0 -- -- 93
2018-09-02 02:00:00 10.9 6 Norte 17 Norte 0 -- -- 90
2018-09-02 01:00:00 10.9 4 Norte 10 Noroeste 0 -- -- 91
2018-09-02 00:00:00 12 7 Norte 13 Norte 0 -- -- 89
2018-09-01 23:00:00 13 6 Noroeste 18 Noroeste 0 -- -- 84
2018-09-01 22:00:00 15.1 11 Norte 21 Norte 0 -- -- 75
2018-09-01 21:00:00 17 13 Nordeste 26 Nordeste 0 -- -- 70
2018-09-01 20:00:00 18.5 17 Nordeste 45 Nordeste 0 -- -- 64
2018-09-01 19:00:00 20.8 23 Nordeste 47 Nordeste 0 -- -- 58
2018-09-01 18:00:00 22.9 30 Nordeste 44 Nordeste 0 -- -- 51
2018-09-01 17:00:00 23.8 31 Nordeste 45 Nordeste 0 -- -- 49
2018-09-01 16:00:00 25.5 30 Nordeste 41 Nordeste 0 -- -- 42
2018-09-01 15:00:00 26 26 Nordeste 44 Nordeste 0 -- -- 39
2018-09-01 14:00:00 26.9 19 Nordeste 34 Nordeste 0 -- -- 36
2018-09-01 13:00:00 26.1 18 Nordeste 31 Este 0 -- -- 37
2018-09-01 12:00:00 24.1 17 Nordeste 31 Este 0 -- -- 44
2018-09-01 11:00:00 21.9 15 Nordeste 30 Nordeste 0 -- -- 52
2018-09-01 10:00:00 16.2 4 Norte 8 Este 0 -- -- 77
2018-09-01 09:00:00 10.7 0 Calma 8 Oeste 0 -- -- 100
2018-09-01 08:00:00 9.5 4 Norte 10 Norte 0 -- -- 99
2018-09-01 07:00:00 9.3 3 Nordeste 10 Nordeste 0 -- -- 99
2018-09-01 06:00:00 9.8 2 Noroeste 6 Norte 0 -- -- 98
2018-09-01 05:00:00 9.9 3 Norte 5 Noroeste 0 -- -- 98
2018-09-01 04:00:00 10.6 2 Norte 6 Noroeste 0 -- -- 97
2018-09-01 03:00:00 11.6 3 Noroeste 10 Noroeste 0 -- -- 95
2018-09-01 02:00:00 13 4 Noroeste 17 Norte 0 -- -- 90
2018-09-01 01:00:00 15 14 Nordeste 30 Nordeste 0 -- -- 84
2018-09-01 00:00:00 15.2 10 Este 22 Este 0 -- -- 83
2018-08-31 23:00:00 15.5 6 Nordeste 30 Nordeste 0 -- -- 79
2018-08-31 22:00:00 15.9 9 Nordeste 28 Nordeste 0 -- -- 77
2018-08-31 21:00:00 16.2 12 Nordeste 30 Este 0 -- -- 75
2018-08-31 20:00:00 17.1 19 Nordeste 42 Este 0 -- -- 71
2018-08-31 19:00:00 19 21 Nordeste 54 Este 0 -- -- 63
2018-08-31 18:00:00 19.8 38 Nordeste 53 Nordeste 0 -- -- 61
2018-08-31 17:00:00 21.5 37 Nordeste 50 Nordeste 0 -- -- 56
2018-08-31 16:00:00 23.7 28 Nordeste 41 Nordeste 0 -- -- 49
2018-08-31 15:00:00 24 26 Nordeste 38 Nordeste 0 -- -- 48
2018-08-31 14:00:00 23.4 26 Nordeste 42 Nordeste 0 -- -- 49
2018-08-31 13:00:00 22.7 28 Nordeste 48 Nordeste 0 -- -- 50
2018-08-31 12:00:00 22.1 20 Nordeste 42 Nordeste 0 -- -- 51
2018-08-31 11:00:00 22.2 18 Nordeste 32 Este 0 -- -- 49
2018-08-31 10:00:00 17.7 15 Nordeste 25 Nordeste 0 -- -- 67
2018-08-31 09:00:00 11.9 6 Norte 13 Noroeste 0 -- -- 91
2018-08-31 08:00:00 10.1 7 Norte 14 Norte 0 -- -- 95
2018-08-31 07:00:00 9.9 5 Norte 14 Norte 0 -- -- 95
2018-08-31 06:00:00 9.5 8 Norte 15 Norte 0 -- -- 96
2018-08-31 05:00:00 9.1 5 Norte 15 Norte 0 -- -- 97
2018-08-31 04:00:00 8.7 5 Norte 12 Norte 0 -- -- 97
2018-08-31 03:00:00 9.2 5 Norte 12 Noroeste 0 -- -- 96
2018-08-31 02:00:00 9.8 6 Noroeste 13 Norte 0 -- -- 95
2018-08-31 01:00:00 10.5 6 Norte 18 Noroeste 0 -- -- 95
2018-08-31 00:00:00 11.4 7 Norte 15 Noroeste 0 -- -- 93
2018-08-30 23:00:00 12.7 7 Noroeste 19 Nordeste 0 -- -- 89
2018-08-30 22:00:00 13.9 5 Norte 18 Nordeste 0 -- -- 85
2018-08-30 21:00:00 15.7 10 Nordeste 25 Este 0 -- -- 77
2018-08-30 20:00:00 17.9 16 Nordeste 28 Este 0 -- -- 69
2018-08-30 19:00:00 20.5 20 Nordeste 35 Este 0 -- -- 60
2018-08-30 18:00:00 22.8 14 Norte 36 Norte 0 -- -- 54
2018-08-30 17:00:00 28 19 Norte 31 Norte 0 -- -- 40
2018-08-30 16:00:00 25.1 13 Norte 24 Noroeste 0 -- -- 42
2018-08-30 15:00:00 24.5 13 Norte 23 Noroeste 0 -- -- 45
2018-08-30 14:00:00 29.2 5 Norte 16 Sur 0 -- -- 38
2018-08-30 13:00:00 25 10 Sur 19 Sudoeste 0 -- -- 47
2018-08-30 12:00:00 21.9 10 Sur 20 Sudoeste 0 -- -- 56
2018-08-30 11:00:00 21.4 3 Nordeste 6 Nordeste 0 -- -- 59
2018-08-30 10:00:00 15.4 2 Nordeste 6 Noroeste 0 -- -- 79
2018-08-30 09:00:00 11.1 3 Norte 9 Norte 0 -- -- 97
2018-08-30 08:00:00 9.6 5 Norte 8 Noroeste 0 -- -- 99
2018-08-30 07:00:00 10 3 Norte 9 Norte 0 -- -- 98
2018-08-30 06:00:00 10.4 3 Norte 13 Noroeste 0 -- -- 97
2018-08-30 05:00:00 11.3 5 Norte 13 Norte 0 -- -- 96
2018-08-30 04:00:00 12.2 7 Norte 13 Norte 0 -- -- 95
2018-08-30 03:00:00 12.8 4 Norte 10 Norte 0 -- -- 94
2018-08-30 02:00:00 14.3 4 Norte 19 Nordeste 0 -- -- 90
2018-08-30 01:00:00 15.4 8 Nordeste 16 Nordeste 0 -- -- 87
2018-08-30 00:00:00 16.2 9 Nordeste 22 Este 0 -- -- 85
2018-08-29 23:00:00 16.9 8 Norte 21 Norte 0 -- -- 83
2018-08-29 22:00:00 17 8 Nordeste 26 Noroeste 0 -- -- 82
2018-08-29 21:00:00 17.8 12 Nordeste 30 Nordeste 0 -- -- 76
2018-08-29 20:00:00 19 19 Nordeste 40 Nordeste 0 -- -- 71
2018-08-29 19:00:00 21.5 24 Nordeste 44 Nordeste 0 -- -- 62
2018-08-29 18:00:00 23.2 26 Nordeste 46 Nordeste 0 -- -- 55
2018-08-29 17:00:00 25.6 19 Nordeste 43 Nordeste 0 -- -- 49
2018-08-29 16:00:00 26.8 19 Nordeste 35 Nordeste 0 -- -- 44
2018-08-29 15:00:00 26.6 24 Nordeste 38 Nordeste 0 -- -- 45
2018-08-29 14:00:00 26.5 19 Nordeste 36 Nordeste 0 -- -- 45
2018-08-29 13:00:00 25.2 22 Nordeste 34 Nordeste 0 -- -- 48
2018-08-29 12:00:00 24.6 9 Nordeste 23 Este 0 -- -- 52
2018-08-29 11:00:00 22.9 12 Este 25 Este 0 -- -- 59
2018-08-29 10:00:00 18.1 6 Norte 21 Nordeste 0 -- -- 79
2018-08-29 09:00:00 14.3 8 Norte 21 Norte 0 -- -- 97
2018-08-29 08:00:00 13.6 4 Norte 15 Norte 0 -- -- 98
2018-08-29 07:00:00 13.8 7 Norte 14 Noroeste 0 -- -- 98
2018-08-29 06:00:00 14 8 Norte 15 Noroeste 0 -- -- 98
2018-08-29 05:00:00 14.7 8 Norte 20 Nordeste 0 -- -- 98
2018-08-29 04:00:00 14.8 5 Norte 19 Noroeste 0 -- -- 96
2018-08-29 03:00:00 15.8 7 Norte 19 Norte 0 -- -- 95
2018-08-29 02:00:00 16.2 12 Norte 19 Norte 0 -- -- 95
2018-08-29 01:00:00 16.4 10 Norte 23 Noroeste 0 -- -- 95
2018-08-29 00:00:00 17 11 Norte 32 Norte 0 -- -- 93
2018-08-28 23:00:00 18.2 10 Noroeste 69 Este 1 -- -- 87
2018-08-28 22:00:00 25 34 Sudeste 74 Este 0 -- -- 52
2018-08-28 21:00:00 25.7 14 Sudoeste 36 Sudoeste 0 -- -- 47
2018-08-28 20:00:00 28.8 10 Sudoeste 25 Sudoeste 0 -- -- 34
2018-08-28 19:00:00 29.3 13 Sudoeste 41 Sudoeste 0 -- -- 30
2018-08-28 18:00:00 32.2 6 Sudoeste 34 Sudoeste 0 -- -- 30
2018-08-28 17:00:00 32 14 Sudoeste 37 Sur 0 -- -- 30
2018-08-28 16:00:00 31.8 18 Sudoeste 33 Sur 0 -- -- 31
2018-08-28 15:00:00 31.8 14 Sudoeste 32 Sudoeste 0 -- -- 31
2018-08-28 14:00:00 30.9 20 Sudoeste 39 Sudoeste 0 -- -- 34
2018-08-28 13:00:00 29.7 15 Sudoeste 32 Sudoeste 0 -- -- 35
2018-08-28 12:00:00 30.9 8 Sur 19 Sudoeste 0 -- -- 33
2018-08-28 11:00:00 23.2 4 Nordeste 9 Nordeste 0 -- -- 59
2018-08-28 10:00:00 18.2 0 Calma 4 Este 0 -- -- 74
2018-08-28 09:00:00 13.2 3 Norte 7 Norte 0 -- -- 95
2018-08-28 08:00:00 11.3 5 Norte 9 Norte 0 -- -- 98
2018-08-28 07:00:00 11.4 4 Norte 9 Norte 0 -- -- 98
2018-08-28 06:00:00 11.6 3 Norte 8 Norte 0 -- -- 97
2018-08-28 05:00:00 12 3 Norte 8 Noroeste 0 -- -- 97
2018-08-28 04:00:00 12.7 4 Norte 9 Norte 0 -- -- 95
2018-08-28 03:00:00 13.4 4 Norte 9 Noroeste 0 -- -- 95
2018-08-28 02:00:00 13.7 4 Norte 10 Norte 0 -- -- 93
2018-08-28 01:00:00 14.8 5 Norte 10 Norte 0 -- -- 90
2018-08-28 00:00:00 15.9 6 Norte 10 Nordeste 0 -- -- 87
2018-08-27 23:00:00 17.2 6 Norte 11 Noroeste 0 -- -- 84
2018-08-27 22:00:00 18.8 5 Norte 10 Norte 0 -- -- 79
2018-08-27 21:00:00 20.9 5 Norte 22 Nordeste 0 -- -- 70
2018-08-27 20:00:00 24.1 12 Nordeste 21 Nordeste 0 -- -- 57
2018-08-27 19:00:00 29.6 11 Noroeste 18 Norte 0 -- -- 41
2018-08-27 18:00:00 31.9 4 Nordeste 21 Sudoeste 0 -- -- 31
2018-08-27 17:00:00 30.9 11 Sur 24 Sur 0 -- -- 29
2018-08-27 16:00:00 31.1 11 Sur 23 Sur 0 -- -- 29
2018-08-27 15:00:00 31.1 9 Sur 20 Sur 0 -- -- 30
2018-08-27 14:00:00 29.9 10 Sur 18 Sur 0 -- -- 32
2018-08-27 13:00:00 28.6 11 Sur 19 Sur 0 -- -- 33
2018-08-27 12:00:00 27.1 7 Sur 14 Sur 0 -- -- 35
2018-08-27 11:00:00 22.6 0 Calma 4 Este 0 -- -- 50
2018-08-27 10:00:00 16.2 0 Calma 4 Nordeste 0 -- -- 70
2018-08-27 09:00:00 10.6 2 Norte 8 Norte 0 -- -- 93
2018-08-27 08:00:00 8.3 4 Norte 8 Norte 0 -- -- 97
2018-08-27 07:00:00 8.1 3 Norte 7 Norte 0 -- -- 97
2018-08-27 06:00:00 8.9 4 Norte 10 Noroeste 0 -- -- 95
2018-08-27 05:00:00 9.5 6 Norte 14 Norte 0 -- -- 94
2018-08-27 04:00:00 9.7 5 Norte 9 Norte 0 -- -- 93
2018-08-27 03:00:00 10.4 2 Norte 13 Norte 0 -- -- 92
2018-08-27 02:00:00 11.2 6 Norte 10 Norte 0 -- -- 89
2018-08-27 01:00:00 11.9 4 Norte 13 Norte 0 -- -- 87
2018-08-27 00:00:00 13.1 5 Norte 14 Norte 0 -- -- 83
2018-08-26 23:00:00 13.7 4 Norte 8 Noroeste 0 -- -- 82
2018-08-26 22:00:00 15.3 4 Norte 10 Nordeste 0 -- -- 75
2018-08-26 21:00:00 17.6 2 Norte 10 Norte 0 -- -- 66
2018-08-26 20:00:00 21.3 9 Noroeste 22 Noroeste 0 -- -- 49
2018-08-26 19:00:00 25.7 11 Norte 22 Norte 0 -- -- 45
2018-08-26 18:00:00 28.4 4 Sur 17 Sudoeste 0 -- -- 28
2018-08-26 17:00:00 27.3 8 Sur 23 Sur 0 -- -- 30
2018-08-26 16:00:00 26.9 13 Sur 22 Sudoeste 0 -- -- 30
2018-08-26 15:00:00 27.3 10 Sur 17 Sudoeste 0 -- -- 30
2018-08-26 14:00:00 25.6 11 Sur 19 Sudoeste 0 -- -- 29
2018-08-26 13:00:00 24 9 Sur 17 Sudoeste 0 -- -- 36
2018-08-26 12:00:00 21.5 9 Sur 16 Sur 0 -- -- 42
2018-08-26 11:00:00 18.7 4 Norte 8 Sudoeste 0 -- -- 47
2018-08-26 10:00:00 13.9 0 Calma 5 Norte 0 -- -- 64
2018-08-26 09:00:00 7.9 3 Noroeste 9 Noroeste 0 -- -- 85
2018-08-26 08:00:00 5.6 4 Noroeste 9 Norte 0 -- -- 92
2018-08-26 07:00:00 5.7 6 Norte 14 Norte 0 -- -- 94
2018-08-26 06:00:00 6.1 5 Noroeste 14 Noroeste 0 -- -- 92
2018-08-26 05:00:00 7.3 6 Noroeste 18 Norte 0 -- -- 87
2018-08-26 04:00:00 8.2 3 Nordeste 18 Noroeste 0 -- -- 85
2018-08-26 03:00:00 8.7 7 Norte 16 Norte 0 -- -- 86
2018-08-26 02:00:00 10.8 7 Norte 19 Nordeste 0 -- -- 77
2018-08-26 01:00:00 11 9 Nordeste 24 Este 0 -- -- 78
2018-08-26 00:00:00 10.7 10 Norte 21 Norte 0 -- -- 77
2018-08-25 23:00:00 11.9 11 Norte 27 Norte 0 -- -- 74
2018-08-25 22:00:00 12.7 16 Norte 33 Norte 0 -- -- 70
2018-08-25 21:00:00 13.5 18 Norte 39 Norte 0 -- -- 66
2018-08-25 20:00:00 14.6 15 Nordeste 42 Nordeste 0 -- -- 66
2018-08-25 19:00:00 16.2 27 Nordeste 50 Nordeste 0 -- -- 58
2018-08-25 18:00:00 17.3 22 Nordeste 48 Nordeste 0 -- -- 59
2018-08-25 17:00:00 17.8 31 Nordeste 49 Nordeste 0 -- -- 56
2018-08-25 16:00:00 19.7 30 Nordeste 47 Nordeste 0 -- -- 50
2018-08-25 15:00:00 20.4 30 Nordeste 49 Nordeste 0 -- -- 46
2018-08-25 14:00:00 20.2 24 Nordeste 44 Nordeste 0 -- -- 43
2018-08-25 13:00:00 20.8 21 Nordeste 40 Este 0 -- -- 43
2018-08-25 12:00:00 19.7 24 Nordeste 43 Nordeste 0 -- -- 46
2018-08-25 11:00:00 18.2 25 Nordeste 45 Este 0 -- -- 51
2018-08-25 10:00:00 16.2 14 Nordeste 34 Este 0 -- -- 59
2018-08-25 09:00:00 11.8 10 Norte 22 Norte 0 -- -- 78
2018-08-25 08:00:00 9.2 9 Norte 25 Norte 0 -- -- 86
2018-08-25 07:00:00 9.3 13 Norte 30 Norte 0 -- -- 86
2018-08-25 06:00:00 9.5 9 Norte 22 Norte 0 -- -- 85
2018-08-25 05:00:00 9.3 9 Norte 25 Norte 0 -- -- 86
2018-08-25 04:00:00 11.1 13 Norte 30 Norte 0 -- -- 78
2018-08-25 03:00:00 10.7 15 Norte 27 Norte 0 -- -- 81
2018-08-25 02:00:00 11.6 10 Norte 31 Norte 0 -- -- 78
2018-08-25 01:00:00 12.6 9 Norte 35 Nordeste 0 -- -- 74
2018-08-25 00:00:00 13.4 11 Nordeste 24 Norte 0 -- -- 72